»·PEaware :: AMMO22 KEND-KEND

AMMO22 :: KEND-KEND

FLIGHT INFORMATION

Flight Status: Arrived
Operator: Unknown
More flights by this operator :: More flights under this callsign
Pilot: Aaron T. (22212)
Aircraft: BEECH AIRCRAFT T-6A TEXAN
(TEX2)
More flights by this aircraft type
Origin: KEND Vance AFB
United States
Destination: KEND Vance AFB
United States
More flights between these airports :: More routes between these airports
Route: +DF END6
File this flight plan on PilotEdge
Remarks:
Altitude:
(Current/Filed)
0ft
Speed:
(Current/Filed)
0kts
Departed: 09-Sep-20 07:23 AM
Arrived: 09-Sep-20 07:52 AM
Distance/Time
Traveled:
9nm/0:29
Distance/Time
To Go:
Arrived

Flight Plot

Page will automatically refresh every two minutes.

Flight plan parsing failed; only flown route is shown


Map Options




Map Legend


Flown Route
Filed Route
Departure Airport
Arrival Airport
Navaid (VOR, NDB)
Fix

Horizontal Profiles

Position Reports

Time Latitude Longitude Heading Altitude Ground
Speed
09-Sep-20 07:11 36.337212 -97.908022 179 1292ft 0kts
09-Sep-20 07:12 36.337212 -97.908022 179 1292ft 0kts
09-Sep-20 07:13 36.337212 -97.908022 179 1292ft 0kts
09-Sep-20 07:14 36.337212 -97.908022 179 1292ft 0kts
09-Sep-20 07:15 36.337212 -97.908022 179 1292ft 0kts
09-Sep-20 07:15 36.337212 -97.908022 179 1292ft 0kts
09-Sep-20 07:17 36.337212 -97.908022 179 1292ft 0kts
09-Sep-20 07:17 36.337212 -97.908022 179 1292ft 0kts
09-Sep-20 07:18 36.337212 -97.908022 179 1292ft 0kts
09-Sep-20 07:20 36.336255 -97.909235 180 1293ft 6kts
09-Sep-20 07:20 36.333882 -97.909504 231 1292ft 1kts
09-Sep-20 07:21 36.333788 -97.909656 236 1292ft 0kts
09-Sep-20 07:23 36.355452 -97.912276 359 1625ft 183kts
09-Sep-20 07:23 36.404241 -97.908206 0 3446ft 223kts
09-Sep-20 07:24 36.470609 -97.904020 3 4965ft 257kts
09-Sep-20 07:25 36.546070 -97.897630 3 4860ft 278kts
09-Sep-20 07:26 36.619408 -97.888995 2 4992ft 255kts
09-Sep-20 07:27 36.691534 -97.887628 340 4218ft 253kts
09-Sep-20 07:28 36.735544 -97.950032 278 2570ft 236kts
09-Sep-20 07:29 36.734555 -98.030331 235 2227ft 216kts
09-Sep-20 07:30 36.691177 -98.072645 179 2249ft 214kts
09-Sep-20 07:31 36.648717 -98.098543 272 1815ft 173kts
09-Sep-20 07:32 36.679396 -98.124645 359 1856ft 142kts
09-Sep-20 07:33 36.717306 -98.124551 359 1425ft 124kts
09-Sep-20 07:34 36.762803 -98.126801 351 2037ft 220kts
09-Sep-20 07:35 36.794281 -98.082017 83 5367ft 206kts
09-Sep-20 07:36 36.802802 -97.995446 83 5895ft 271kts
09-Sep-20 07:37 36.798168 -97.899516 94 6015ft 278kts
09-Sep-20 07:38 36.793177 -97.805006 95 6064ft 267kts
09-Sep-20 07:39 36.758152 -97.748078 179 6161ft 254kts
09-Sep-20 07:40 36.687033 -97.743085 177 6347ft 256kts
09-Sep-20 07:41 36.614378 -97.742684 183 6166ft 260kts
09-Sep-20 07:42 36.541092 -97.751309 198 5442ft 258kts
09-Sep-20 07:43 36.476364 -97.775101 201 6211ft 242kts
09-Sep-20 07:44 36.408138 -97.790789 190 6058ft 249kts
09-Sep-20 07:45 36.338174 -97.804064 189 5209ft 245kts
09-Sep-20 07:46 36.271855 -97.814667 192 5066ft 244kts
09-Sep-20 07:47 36.211634 -97.847439 243 3564ft 256kts
09-Sep-20 07:48 36.228221 -97.909476 1 2227ft 222kts
09-Sep-20 07:49 36.283658 -97.909377 350 1832ft 169kts
09-Sep-20 07:50 36.322213 -97.911100 357 1608ft 122kts
09-Sep-20 07:51 36.346454 -97.910796 29 1279ft 20kts
09-Sep-20 07:52 36.346788 -97.910216 84 1279ft 4kts
09-Sep-20 07:53 36.785080 -98.128944 80 3000ft 200kts
09-Sep-20 07:54 36.785980 -98.121889 83 3272ft 155kts
09-Sep-20 07:55 36.784209 -98.070956 92 5505ft 154kts
09-Sep-20 07:56 36.780452 -98.010559 94 5533ft 184kts
09-Sep-20 07:57 36.772685 -97.952937 105 5525ft 161kts
09-Sep-20 07:58 36.752937 -97.904237 138 5519ft 157kts
09-Sep-20 07:59 36.746088 -97.849989 93 6050ft 171kts
09-Sep-20 08:00 36.756056 -97.794535 56 6249ft 161kts
09-Sep-20 08:01 36.762924 -97.745044 185 6010ft 183kts
09-Sep-20 08:02 36.718367 -97.770889 204 6014ft 200kts
09-Sep-20 08:03 36.653300 -97.795602 181 6111ft 263kts
09-Sep-20 08:04 36.580664 -97.794059 180 6031ft 262kts
09-Sep-20 08:05 36.508764 -97.789773 179 6003ft 260kts
09-Sep-20 08:06 36.437053 -97.787296 182 6041ft 256kts

Navigation Log

Ident Type
Flight plan parsing failed, navigation log unavailable